sensor_id;sensor_type;location;lat;lon;timestamp;temperature;humidity
7588;DHT22;3835;48.850;8.938;2023-04-25T00:01:17;7.30;99.90
7588;DHT22;3835;48.850;8.938;2023-04-25T00:03:45;7.30;99.90
7588;DHT22;3835;48.850;8.938;2023-04-25T00:06:13;7.30;99.90
7588;DHT22;3835;48.850;8.938;2023-04-25T00:08:40;7.30;99.90
7588;DHT22;3835;48.850;8.938;2023-04-25T00:11:07;7.30;99.90
7588;DHT22;3835;48.850;8.938;2023-04-25T00:13:34;7.40;99.90
7588;DHT22;3835;48.850;8.938;2023-04-25T00:16:00;7.40;99.90
7588;DHT22;3835;48.850;8.938;2023-04-25T00:18:27;7.30;99.90
7588;DHT22;3835;48.850;8.938;2023-04-25T00:20:55;7.30;99.90
7588;DHT22;3835;48.850;8.938;2023-04-25T00:23:23;7.30;99.90
7588;DHT22;3835;48.850;8.938;2023-04-25T00:25:50;7.20;99.90
7588;DHT22;3835;48.850;8.938;2023-04-25T00:28:17;7.20;99.90
7588;DHT22;3835;48.850;8.938;2023-04-25T00:30:44;7.20;99.90
7588;DHT22;3835;48.850;8.938;2023-04-25T00:33:10;7.20;99.90
7588;DHT22;3835;48.850;8.938;2023-04-25T00:35:38;7.20;99.90
7588;DHT22;3835;48.850;8.938;2023-04-25T00:38:04;7.20;99.90
7588;DHT22;3835;48.850;8.938;2023-04-25T00:40:33;7.30;99.90
7588;DHT22;3835;48.850;8.938;2023-04-25T00:43:00;7.20;99.90
7588;DHT22;3835;48.850;8.938;2023-04-25T00:45:28;7.20;99.90
7588;DHT22;3835;48.850;8.938;2023-04-25T00:47:56;7.30;99.90
7588;DHT22;3835;48.850;8.938;2023-04-25T00:50:23;7.20;99.90
7588;DHT22;3835;48.850;8.938;2023-04-25T00:52:50;7.20;99.90
7588;DHT22;3835;48.850;8.938;2023-04-25T00:55:17;7.30;99.90
7588;DHT22;3835;48.850;8.938;2023-04-25T00:57:45;7.30;99.90
7588;DHT22;3835;48.850;8.938;2023-04-25T01:00:12;7.20;99.90
7588;DHT22;3835;48.850;8.938;2023-04-25T01:02:40;7.10;99.90
7588;DHT22;3835;48.850;8.938;2023-04-25T01:05:08;7.00;99.90
7588;DHT22;3835;48.850;8.938;2023-04-25T01:07:35;7.00;99.90
7588;DHT22;3835;48.850;8.938;2023-04-25T01:10:02;6.90;99.90
7588;DHT22;3835;48.850;8.938;2023-04-25T01:12:29;6.90;99.90
7588;DHT22;3835;48.850;8.938;2023-04-25T01:14:57;6.90;99.90
7588;DHT22;3835;48.850;8.938;2023-04-25T01:17:24;6.80;99.90
7588;DHT22;3835;48.850;8.938;2023-04-25T01:19:52;6.80;99.90
7588;DHT22;3835;48.850;8.938;2023-04-25T01:22:21;6.80;99.90
7588;DHT22;3835;48.850;8.938;2023-04-25T01:24:48;6.80;99.90
7588;DHT22;3835;48.850;8.938;2023-04-25T01:27:15;6.70;99.90
7588;DHT22;3835;48.850;8.938;2023-04-25T01:29:42;6.70;99.90
7588;DHT22;3835;48.850;8.938;2023-04-25T01:32:09;6.70;99.90
7588;DHT22;3835;48.850;8.938;2023-04-25T01:34:36;6.70;99.90
7588;DHT22;3835;48.850;8.938;2023-04-25T01:37:03;6.70;99.90
7588;DHT22;3835;48.850;8.938;2023-04-25T01:39:32;6.70;99.90
7588;DHT22;3835;48.850;8.938;2023-04-25T01:41:59;6.80;99.90
7588;DHT22;3835;48.850;8.938;2023-04-25T01:44:26;6.80;99.90
7588;DHT22;3835;48.850;8.938;2023-04-25T01:46:53;6.90;99.90
7588;DHT22;3835;48.850;8.938;2023-04-25T01:49:20;6.90;99.90
7588;DHT22;3835;48.850;8.938;2023-04-25T01:51:46;7.00;99.90
7588;DHT22;3835;48.850;8.938;2023-04-25T01:54:13;7.00;99.90
7588;DHT22;3835;48.850;8.938;2023-04-25T01:56:41;6.90;99.90
7588;DHT22;3835;48.850;8.938;2023-04-25T01:59:08;6.90;99.90
7588;DHT22;3835;48.850;8.938;2023-04-25T02:01:35;6.90;99.90
7588;DHT22;3835;48.850;8.938;2023-04-25T02:04:02;6.90;99.90
7588;DHT22;3835;48.850;8.938;2023-04-25T02:06:28;6.90;99.90
7588;DHT22;3835;48.850;8.938;2023-04-25T02:08:56;6.90;99.90
7588;DHT22;3835;48.850;8.938;2023-04-25T02:11:23;6.90;99.90
7588;DHT22;3835;48.850;8.938;2023-04-25T02:13:51;6.80;99.90
7588;DHT22;3835;48.850;8.938;2023-04-25T02:16:17;6.80;99.90
7588;DHT22;3835;48.850;8.938;2023-04-25T02:18:44;6.80;99.90
7588;DHT22;3835;48.850;8.938;2023-04-25T02:21:11;6.80;99.90
7588;DHT22;3835;48.850;8.938;2023-04-25T02:23:38;6.90;99.90
7588;DHT22;3835;48.850;8.938;2023-04-25T02:26:05;6.90;99.90
7588;DHT22;3835;48.850;8.938;2023-04-25T02:28:31;6.90;99.90
7588;DHT22;3835;48.850;8.938;2023-04-25T02:30:59;6.80;99.90
7588;DHT22;3835;48.850;8.938;2023-04-25T02:33:26;6.80;99.90
7588;DHT22;3835;48.850;8.938;2023-04-25T02:35:53;6.70;99.90
7588;DHT22;3835;48.850;8.938;2023-04-25T02:38:20;6.70;99.90
7588;DHT22;3835;48.850;8.938;2023-04-25T02:40:46;6.60;99.90
7588;DHT22;3835;48.850;8.938;2023-04-25T02:43:13;6.60;99.90
7588;DHT22;3835;48.850;8.938;2023-04-25T02:45:41;6.50;99.90
7588;DHT22;3835;48.850;8.938;2023-04-25T02:48:09;6.60;99.90
7588;DHT22;3835;48.850;8.938;2023-04-25T02:50:36;6.60;99.90
7588;DHT22;3835;48.850;8.938;2023-04-25T02:53:03;6.60;99.90
7588;DHT22;3835;48.850;8.938;2023-04-25T02:55:29;6.60;99.90
7588;DHT22;3835;48.850;8.938;2023-04-25T02:57:56;6.60;99.90
7588;DHT22;3835;48.850;8.938;2023-04-25T03:00:23;6.60;99.90
7588;DHT22;3835;48.850;8.938;2023-04-25T03:02:50;6.50;99.90
7588;DHT22;3835;48.850;8.938;2023-04-25T03:05:18;6.50;99.90
7588;DHT22;3835;48.850;8.938;2023-04-25T03:07:45;6.30;99.90
7588;DHT22;3835;48.850;8.938;2023-04-25T03:10:12;6.20;99.90
7588;DHT22;3835;48.850;8.938;2023-04-25T03:12:39;6.20;99.90
7588;DHT22;3835;48.850;8.938;2023-04-25T03:15:06;6.20;99.90
7588;DHT22;3835;48.850;8.938;2023-04-25T03:17:33;6.20;99.90
7588;DHT22;3835;48.850;8.938;2023-04-25T03:20:00;6.10;99.90
7588;DHT22;3835;48.850;8.938;2023-04-25T03:22:30;6.20;99.90
7588;DHT22;3835;48.850;8.938;2023-04-25T03:24:57;6.20;99.90
7588;DHT22;3835;48.850;8.938;2023-04-25T03:27:24;6.30;99.90
7588;DHT22;3835;48.850;8.938;2023-04-25T03:29:51;6.30;99.90
7588;DHT22;3835;48.850;8.938;2023-04-25T03:32:17;6.40;99.90
7588;DHT22;3835;48.850;8.938;2023-04-25T03:34:44;6.40;99.90
7588;DHT22;3835;48.850;8.938;2023-04-25T03:37:11;6.50;99.90
7588;DHT22;3835;48.850;8.938;2023-04-25T03:39:39;6.50;99.90
7588;DHT22;3835;48.850;8.938;2023-04-25T03:42:06;6.50;99.90
7588;DHT22;3835;48.850;8.938;2023-04-25T03:44:32;6.60;99.90
7588;DHT22;3835;48.850;8.938;2023-04-25T03:46:59;6.60;99.90
7588;DHT22;3835;48.850;8.938;2023-04-25T03:49:26;6.60;99.90
7588;DHT22;3835;48.850;8.938;2023-04-25T03:51:53;6.60;99.90
7588;DHT22;3835;48.850;8.938;2023-04-25T03:54:19;6.50;99.90
7588;DHT22;3835;48.850;8.938;2023-04-25T03:56:47;6.50;99.90
7588;DHT22;3835;48.850;8.938;2023-04-25T03:59:15;6.50;99.90
7588;DHT22;3835;48.850;8.938;2023-04-25T04:01:41;6.50;99.90
7588;DHT22;3835;48.850;8.938;2023-04-25T04:04:08;6.50;99.90
7588;DHT22;3835;48.850;8.938;2023-04-25T04:06:35;6.50;99.90
7588;DHT22;3835;48.850;8.938;2023-04-25T04:09:02;6.60;99.90
7588;DHT22;3835;48.850;8.938;2023-04-25T04:11:28;6.60;99.90
7588;DHT22;3835;48.850;8.938;2023-04-25T04:13:58;6.70;99.90
7588;DHT22;3835;48.850;8.938;2023-04-25T04:16:24;6.70;99.90
7588;DHT22;3835;48.850;8.938;2023-04-25T04:18:51;6.70;99.90
7588;DHT22;3835;48.850;8.938;2023-04-25T04:21:18;6.70;99.90
7588;DHT22;3835;48.850;8.938;2023-04-25T04:23:45;6.70;99.90
7588;DHT22;3835;48.850;8.938;2023-04-25T04:26:13;6.70;99.90
7588;DHT22;3835;48.850;8.938;2023-04-25T04:28:42;6.70;99.90
7588;DHT22;3835;48.850;8.938;2023-04-25T04:31:10;6.80;99.90
7588;DHT22;3835;48.850;8.938;2023-04-25T04:33:37;6.80;99.90
7588;DHT22;3835;48.850;8.938;2023-04-25T04:36:04;6.80;99.90
7588;DHT22;3835;48.850;8.938;2023-04-25T04:38:33;6.80;99.90
7588;DHT22;3835;48.850;8.938;2023-04-25T04:41:00;6.80;99.90
7588;DHT22;3835;48.850;8.938;2023-04-25T04:43:27;6.90;99.90
7588;DHT22;3835;48.850;8.938;2023-04-25T04:45:55;7.00;99.90
7588;DHT22;3835;48.850;8.938;2023-04-25T04:48:24;6.90;99.90
7588;DHT22;3835;48.850;8.938;2023-04-25T04:50:50;7.00;99.90
7588;DHT22;3835;48.850;8.938;2023-04-25T04:53:17;7.10;99.90
7588;DHT22;3835;48.850;8.938;2023-04-25T04:55:44;7.00;99.90
7588;DHT22;3835;48.850;8.938;2023-04-25T04:58:11;7.00;99.90
7588;DHT22;3835;48.850;8.938;2023-04-25T05:00:38;7.00;99.90
7588;DHT22;3835;48.850;8.938;2023-04-25T05:03:05;6.90;99.90
7588;DHT22;3835;48.850;8.938;2023-04-25T05:05:33;6.80;99.90
7588;DHT22;3835;48.850;8.938;2023-04-25T05:08:00;6.80;99.90
7588;DHT22;3835;48.850;8.938;2023-04-25T05:10:27;6.70;99.90
7588;DHT22;3835;48.850;8.938;2023-04-25T05:12:54;6.70;99.90
7588;DHT22;3835;48.850;8.938;2023-04-25T05:15:20;6.60;99.90
7588;DHT22;3835;48.850;8.938;2023-04-25T05:17:47;6.60;99.90
7588;DHT22;3835;48.850;8.938;2023-04-25T05:20:14;6.60;99.90
7588;DHT22;3835;48.850;8.938;2023-04-25T05:22:42;6.70;99.90
7588;DHT22;3835;48.850;8.938;2023-04-25T05:25:09;6.70;99.90
7588;DHT22;3835;48.850;8.938;2023-04-25T05:27:36;6.80;99.90
7588;DHT22;3835;48.850;8.938;2023-04-25T05:30:03;6.90;99.90
7588;DHT22;3835;48.850;8.938;2023-04-25T05:32:31;6.90;99.90
7588;DHT22;3835;48.850;8.938;2023-04-25T05:34:58;6.90;99.90
7588;DHT22;3835;48.850;8.938;2023-04-25T05:37:25;6.90;99.90
7588;DHT22;3835;48.850;8.938;2023-04-25T05:39:53;6.80;99.90
7588;DHT22;3835;48.850;8.938;2023-04-25T05:42:20;6.90;99.90
7588;DHT22;3835;48.850;8.938;2023-04-25T05:44:46;6.90;99.90
7588;DHT22;3835;48.850;8.938;2023-04-25T05:47:13;6.90;99.90
7588;DHT22;3835;48.850;8.938;2023-04-25T05:49:40;6.90;99.90
7588;DHT22;3835;48.850;8.938;2023-04-25T05:52:07;7.00;99.90
7588;DHT22;3835;48.850;8.938;2023-04-25T05:54:34;7.00;99.90
7588;DHT22;3835;48.850;8.938;2023-04-25T05:57:02;7.00;99.90
7588;DHT22;3835;48.850;8.938;2023-04-25T05:59:29;7.10;99.90
7588;DHT22;3835;48.850;8.938;2023-04-25T06:01:55;7.20;99.90
7588;DHT22;3835;48.850;8.938;2023-04-25T06:04:22;7.40;99.90
7588;DHT22;3835;48.850;8.938;2023-04-25T06:06:49;7.60;99.90
7588;DHT22;3835;48.850;8.938;2023-04-25T06:09:16;7.70;99.90
7588;DHT22;3835;48.850;8.938;2023-04-25T06:11:42;7.90;99.90
7588;DHT22;3835;48.850;8.938;2023-04-25T06:14:10;8.00;99.90
7588;DHT22;3835;48.850;8.938;2023-04-25T06:16:37;7.90;99.90
7588;DHT22;3835;48.850;8.938;2023-04-25T06:19:04;7.90;99.90
7588;DHT22;3835;48.850;8.938;2023-04-25T06:21:31;7.80;99.90
7588;DHT22;3835;48.850;8.938;2023-04-25T06:23:57;7.80;99.90
7588;DHT22;3835;48.850;8.938;2023-04-25T06:26:24;7.80;99.90
7588;DHT22;3835;48.850;8.938;2023-04-25T06:28:51;7.90;99.90
7588;DHT22;3835;48.850;8.938;2023-04-25T06:31:19;7.90;99.90
7588;DHT22;3835;48.850;8.938;2023-04-25T06:33:46;7.90;99.90
7588;DHT22;3835;48.850;8.938;2023-04-25T06:36:13;7.80;99.90
7588;DHT22;3835;48.850;8.938;2023-04-25T06:38:40;7.80;99.90
7588;DHT22;3835;48.850;8.938;2023-04-25T06:41:07;7.70;99.90
7588;DHT22;3835;48.850;8.938;2023-04-25T06:43:33;7.60;99.90
7588;DHT22;3835;48.850;8.938;2023-04-25T06:46:00;7.70;99.90
7588;DHT22;3835;48.850;8.938;2023-04-25T06:48:29;7.70;99.90
7588;DHT22;3835;48.850;8.938;2023-04-25T06:50:55;7.80;99.90
7588;DHT22;3835;48.850;8.938;2023-04-25T06:53:22;7.90;99.90
7588;DHT22;3835;48.850;8.938;2023-04-25T06:55:49;7.90;99.90
7588;DHT22;3835;48.850;8.938;2023-04-25T06:58:16;8.00;99.90
7588;DHT22;3835;48.850;8.938;2023-04-25T07:00:43;8.10;99.90
7588;DHT22;3835;48.850;8.938;2023-04-25T07:03:10;8.00;99.90
7588;DHT22;3835;48.850;8.938;2023-04-25T07:05:38;8.00;99.90
7588;DHT22;3835;48.850;8.938;2023-04-25T07:08:05;8.00;99.90
7588;DHT22;3835;48.850;8.938;2023-04-25T07:10:32;8.10;99.90
7588;DHT22;3835;48.850;8.938;2023-04-25T07:12:59;8.10;99.90
7588;DHT22;3835;48.850;8.938;2023-04-25T07:15:25;8.20;99.90
7588;DHT22;3835;48.850;8.938;2023-04-25T07:17:52;8.30;99.90
7588;DHT22;3835;48.850;8.938;2023-04-25T07:20:19;8.30;99.90
7588;DHT22;3835;48.850;8.938;2023-04-25T07:22:47;8.30;99.90
7588;DHT22;3835;48.850;8.938;2023-04-25T07:25:15;8.20;99.90
7588;DHT22;3835;48.850;8.938;2023-04-25T07:27:42;8.40;99.90
7588;DHT22;3835;48.850;8.938;2023-04-25T07:30:10;8.40;99.90
7588;DHT22;3835;48.850;8.938;2023-04-25T07:32:38;8.50;99.90
7588;DHT22;3835;48.850;8.938;2023-04-25T07:35:05;8.50;99.90
7588;DHT22;3835;48.850;8.938;2023-04-25T07:37:33;8.40;99.90
7588;DHT22;3835;48.850;8.938;2023-04-25T07:40:01;8.40;99.90
7588;DHT22;3835;48.850;8.938;2023-04-25T07:42:29;8.40;99.90
7588;DHT22;3835;48.850;8.938;2023-04-25T07:44:56;8.40;99.90
7588;DHT22;3835;48.850;8.938;2023-04-25T07:47:23;8.40;99.90
7588;DHT22;3835;48.850;8.938;2023-04-25T07:49:50;8.50;99.90
7588;DHT22;3835;48.850;8.938;2023-04-25T07:52:17;8.50;99.90
7588;DHT22;3835;48.850;8.938;2023-04-25T07:54:43;8.50;99.90
7588;DHT22;3835;48.850;8.938;2023-04-25T07:57:11;8.50;99.90
7588;DHT22;3835;48.850;8.938;2023-04-25T07:59:39;8.40;99.90
7588;DHT22;3835;48.850;8.938;2023-04-25T08:02:06;8.20;99.90
7588;DHT22;3835;48.850;8.938;2023-04-25T08:04:32;8.00;99.90
7588;DHT22;3835;48.850;8.938;2023-04-25T08:07:00;8.10;99.90
7588;DHT22;3835;48.850;8.938;2023-04-25T08:09:26;8.00;99.90
7588;DHT22;3835;48.850;8.938;2023-04-25T08:11:54;7.90;99.90
7588;DHT22;3835;48.850;8.938;2023-04-25T08:14:22;7.70;99.90
7588;DHT22;3835;48.850;8.938;2023-04-25T08:16:49;7.70;99.90
7588;DHT22;3835;48.850;8.938;2023-04-25T08:19:16;7.80;99.90
7588;DHT22;3835;48.850;8.938;2023-04-25T08:21:43;7.90;99.90
7588;DHT22;3835;48.850;8.938;2023-04-25T08:24:09;8.10;99.90
7588;DHT22;3835;48.850;8.938;2023-04-25T08:26:36;8.10;99.90
7588;DHT22;3835;48.850;8.938;2023-04-25T08:29:04;8.00;99.90
7588;DHT22;3835;48.850;8.938;2023-04-25T08:31:33;8.00;99.90
7588;DHT22;3835;48.850;8.938;2023-04-25T08:34:00;8.00;99.90
7588;DHT22;3835;48.850;8.938;2023-04-25T08:36:26;7.90;99.90
7588;DHT22;3835;48.850;8.938;2023-04-25T08:38:54;7.80;99.90
7588;DHT22;3835;48.850;8.938;2023-04-25T08:41:21;7.80;99.90
7588;DHT22;3835;48.850;8.938;2023-04-25T08:43:49;7.70;99.90
7588;DHT22;3835;48.850;8.938;2023-04-25T08:46:18;7.70;99.90
7588;DHT22;3835;48.850;8.938;2023-04-25T08:48:46;7.70;99.90
7588;DHT22;3835;48.850;8.938;2023-04-25T08:51:20;7.70;99.90
7588;DHT22;3835;48.850;8.938;2023-04-25T08:53:50;7.80;99.90
7588;DHT22;3835;48.850;8.938;2023-04-25T08:56:17;7.80;99.90
7588;DHT22;3835;48.850;8.938;2023-04-25T08:58:47;8.10;99.90
7588;DHT22;3835;48.850;8.938;2023-04-25T09:01:14;8.30;99.90
7588;DHT22;3835;48.850;8.938;2023-04-25T09:03:42;8.40;99.90
7588;DHT22;3835;48.850;8.938;2023-04-25T09:06:11;8.40;99.90
7588;DHT22;3835;48.850;8.938;2023-04-25T09:08:38;8.50;99.90
7588;DHT22;3835;48.850;8.938;2023-04-25T09:11:06;8.30;99.90
7588;DHT22;3835;48.850;8.938;2023-04-25T09:13:33;8.20;99.90
7588;DHT22;3835;48.850;8.938;2023-04-25T09:16:00;8.20;99.90
7588;DHT22;3835;48.850;8.938;2023-04-25T09:18:28;8.20;99.90
7588;DHT22;3835;48.850;8.938;2023-04-25T09:20:55;8.10;99.90
7588;DHT22;3835;48.850;8.938;2023-04-25T09:23:24;8.00;99.90
7588;DHT22;3835;48.850;8.938;2023-04-25T09:25:52;7.80;99.90
7588;DHT22;3835;48.850;8.938;2023-04-25T09:28:23;7.70;99.90
7588;DHT22;3835;48.850;8.938;2023-04-25T09:30:55;7.90;99.90
7588;DHT22;3835;48.850;8.938;2023-04-25T09:33:28;8.10;99.90
7588;DHT22;3835;48.850;8.938;2023-04-25T09:36:02;8.10;99.90
7588;DHT22;3835;48.850;8.938;2023-04-25T09:38:32;8.20;99.90
7588;DHT22;3835;48.850;8.938;2023-04-25T09:41:05;8.30;99.90
7588;DHT22;3835;48.850;8.938;2023-04-25T09:43:32;8.10;99.90
7588;DHT22;3835;48.850;8.938;2023-04-25T09:45:59;8.30;99.90
7588;DHT22;3835;48.850;8.938;2023-04-25T09:48:27;8.50;99.90
7588;DHT22;3835;48.850;8.938;2023-04-25T09:51:04;8.30;99.90
7588;DHT22;3835;48.850;8.938;2023-04-25T09:53:33;8.30;99.90
7588;DHT22;3835;48.850;8.938;2023-04-25T09:56:04;8.50;99.90
7588;DHT22;3835;48.850;8.938;2023-04-25T09:58:32;8.50;99.90
7588;DHT22;3835;48.850;8.938;2023-04-25T10:01:01;8.60;99.90
7588;DHT22;3835;48.850;8.938;2023-04-25T10:03:29;8.70;99.90
7588;DHT22;3835;48.850;8.938;2023-04-25T10:05:58;8.60;99.90
7588;DHT22;3835;48.850;8.938;2023-04-25T10:08:29;8.50;99.90
7588;DHT22;3835;48.850;8.938;2023-04-25T10:11:00;8.20;99.90
7588;DHT22;3835;48.850;8.938;2023-04-25T10:13:27;8.00;99.90
7588;DHT22;3835;48.850;8.938;2023-04-25T10:15:57;7.90;99.90
7588;DHT22;3835;48.850;8.938;2023-04-25T10:18:25;7.50;99.90
7588;DHT22;3835;48.850;8.938;2023-04-25T10:20:52;7.30;99.90
7588;DHT22;3835;48.850;8.938;2023-04-25T10:23:20;6.90;99.90
7588;DHT22;3835;48.850;8.938;2023-04-25T10:25:47;6.80;99.90
7588;DHT22;3835;48.850;8.938;2023-04-25T10:28:16;6.70;99.90
7588;DHT22;3835;48.850;8.938;2023-04-25T10:30:57;6.60;99.90
7588;DHT22;3835;48.850;8.938;2023-04-25T10:33:32;6.50;99.90
7588;DHT22;3835;48.850;8.938;2023-04-25T10:35:59;6.50;99.90
7588;DHT22;3835;48.850;8.938;2023-04-25T10:38:34;6.60;99.90
7588;DHT22;3835;48.850;8.938;2023-04-25T10:41:06;6.50;99.90
7588;DHT22;3835;48.850;8.938;2023-04-25T10:43:37;6.40;99.90
7588;DHT22;3835;48.850;8.938;2023-04-25T10:46:17;6.60;99.90
7588;DHT22;3835;48.850;8.938;2023-04-25T10:48:49;6.70;99.90
7588;DHT22;3835;48.850;8.938;2023-04-25T10:51:20;6.90;99.90
7588;DHT22;3835;48.850;8.938;2023-04-25T10:53:57;6.60;99.90
7588;DHT22;3835;48.850;8.938;2023-04-25T10:56:26;6.70;99.90
7588;DHT22;3835;48.850;8.938;2023-04-25T10:59:03;6.70;99.90
7588;DHT22;3835;48.850;8.938;2023-04-25T11:01:36;6.70;99.90
7588;DHT22;3835;48.850;8.938;2023-04-25T11:04:03;6.40;99.90
7588;DHT22;3835;48.850;8.938;2023-04-25T11:06:37;6.40;99.90
7588;DHT22;3835;48.850;8.938;2023-04-25T11:09:10;6.30;99.90
7588;DHT22;3835;48.850;8.938;2023-04-25T11:11:38;6.50;99.90
7588;DHT22;3835;48.850;8.938;2023-04-25T11:14:07;6.50;99.90
7588;DHT22;3835;48.850;8.938;2023-04-25T11:16:33;6.70;99.90
7588;DHT22;3835;48.850;8.938;2023-04-25T11:19:02;6.90;99.90
7588;DHT22;3835;48.850;8.938;2023-04-25T11:21:30;7.10;99.90
7588;DHT22;3835;48.850;8.938;2023-04-25T11:23:57;7.20;99.90
7588;DHT22;3835;48.850;8.938;2023-04-25T11:26:24;7.00;99.90
7588;DHT22;3835;48.850;8.938;2023-04-25T11:28:51;7.00;99.90
7588;DHT22;3835;48.850;8.938;2023-04-25T11:31:25;7.00;99.90
7588;DHT22;3835;48.850;8.938;2023-04-25T11:33:53;7.10;99.90
7588;DHT22;3835;48.850;8.938;2023-04-25T11:36:20;7.20;99.90
7588;DHT22;3835;48.850;8.938;2023-04-25T11:38:46;7.20;99.90
7588;DHT22;3835;48.850;8.938;2023-04-25T11:41:13;7.10;99.90
7588;DHT22;3835;48.850;8.938;2023-04-25T11:43:40;7.20;99.90
7588;DHT22;3835;48.850;8.938;2023-04-25T11:46:09;7.20;99.90
7588;DHT22;3835;48.850;8.938;2023-04-25T11:48:38;7.30;99.90
7588;DHT22;3835;48.850;8.938;2023-04-25T11:51:05;7.60;99.90
7588;DHT22;3835;48.850;8.938;2023-04-25T11:53:32;7.70;99.90
7588;DHT22;3835;48.850;8.938;2023-04-25T11:55:59;8.00;99.90
7588;DHT22;3835;48.850;8.938;2023-04-25T11:58:26;8.20;99.90
7588;DHT22;3835;48.850;8.938;2023-04-25T12:00:53;8.50;99.90
7588;DHT22;3835;48.850;8.938;2023-04-25T12:03:24;8.90;99.90
7588;DHT22;3835;48.850;8.938;2023-04-25T12:06:02;9.30;99.90
7588;DHT22;3835;48.850;8.938;2023-04-25T12:08:29;9.80;99.90
7588;DHT22;3835;48.850;8.938;2023-04-25T12:10:56;9.80;99.90
7588;DHT22;3835;48.850;8.938;2023-04-25T12:13:24;9.90;99.90
7588;DHT22;3835;48.850;8.938;2023-04-25T12:15:52;10.00;99.90
7588;DHT22;3835;48.850;8.938;2023-04-25T12:18:22;10.40;99.90
7588;DHT22;3835;48.850;8.938;2023-04-25T12:20:49;10.00;99.90
7588;DHT22;3835;48.850;8.938;2023-04-25T12:23:25;10.00;99.90
7588;DHT22;3835;48.850;8.938;2023-04-25T12:25:52;10.00;99.90
7588;DHT22;3835;48.850;8.938;2023-04-25T12:28:20;9.90;99.90
7588;DHT22;3835;48.850;8.938;2023-04-25T12:30:56;10.50;99.90
7588;DHT22;3835;48.850;8.938;2023-04-25T12:33:24;10.80;99.90
7588;DHT22;3835;48.850;8.938;2023-04-25T12:35:52;11.20;99.90
7588;DHT22;3835;48.850;8.938;2023-04-25T12:38:24;11.20;99.90
7588;DHT22;3835;48.850;8.938;2023-04-25T12:40:52;10.90;99.90
7588;DHT22;3835;48.850;8.938;2023-04-25T12:43:19;11.20;99.90
7588;DHT22;3835;48.850;8.938;2023-04-25T12:45:48;11.70;99.90
7588;DHT22;3835;48.850;8.938;2023-04-25T12:48:15;11.60;99.90
7588;DHT22;3835;48.850;8.938;2023-04-25T12:50:42;10.60;99.90
7588;DHT22;3835;48.850;8.938;2023-04-25T12:53:09;10.30;99.90
7588;DHT22;3835;48.850;8.938;2023-04-25T12:55:37;10.30;99.90
7588;DHT22;3835;48.850;8.938;2023-04-25T12:58:04;10.50;99.90
7588;DHT22;3835;48.850;8.938;2023-04-25T13:00:31;10.30;99.90
7588;DHT22;3835;48.850;8.938;2023-04-25T13:02:58;10.10;99.90
7588;DHT22;3835;48.850;8.938;2023-04-25T13:05:25;9.60;99.90
7588;DHT22;3835;48.850;8.938;2023-04-25T13:07:51;9.50;99.90
7588;DHT22;3835;48.850;8.938;2023-04-25T13:10:18;9.90;99.90
7588;DHT22;3835;48.850;8.938;2023-04-25T13:12:46;10.00;99.90
7588;DHT22;3835;48.850;8.938;2023-04-25T13:15:13;9.90;99.90
7588;DHT22;3835;48.850;8.938;2023-04-25T13:17:41;9.80;99.90
7588;DHT22;3835;48.850;8.938;2023-04-25T13:20:09;10.10;99.90
7588;DHT22;3835;48.850;8.938;2023-04-25T13:22:37;9.80;99.90
7588;DHT22;3835;48.850;8.938;2023-04-25T13:25:05;9.60;99.90
7588;DHT22;3835;48.850;8.938;2023-04-25T13:27:32;9.90;99.90
7588;DHT22;3835;48.850;8.938;2023-04-25T13:30:01;10.30;99.90
7588;DHT22;3835;48.850;8.938;2023-04-25T13:32:32;10.40;99.90
7588;DHT22;3835;48.850;8.938;2023-04-25T13:34:59;10.20;99.90
7588;DHT22;3835;48.850;8.938;2023-04-25T13:37:26;10.30;99.90
7588;DHT22;3835;48.850;8.938;2023-04-25T13:39:53;10.20;99.90
7588;DHT22;3835;48.850;8.938;2023-04-25T13:42:20;9.90;99.90
7588;DHT22;3835;48.850;8.938;2023-04-25T13:44:47;10.00;99.90
7588;DHT22;3835;48.850;8.938;2023-04-25T13:47:15;10.40;99.90
7588;DHT22;3835;48.850;8.938;2023-04-25T13:49:42;10.10;99.90
7588;DHT22;3835;48.850;8.938;2023-04-25T13:52:09;10.70;99.90
7588;DHT22;3835;48.850;8.938;2023-04-25T13:54:35;11.10;99.90
7588;DHT22;3835;48.850;8.938;2023-04-25T13:57:02;11.00;99.90
7588;DHT22;3835;48.850;8.938;2023-04-25T13:59:29;11.10;99.90
7588;DHT22;3835;48.850;8.938;2023-04-25T14:01:56;11.10;99.90
7588;DHT22;3835;48.850;8.938;2023-04-25T14:04:24;11.60;99.90
7588;DHT22;3835;48.850;8.938;2023-04-25T14:06:51;11.00;99.90
7588;DHT22;3835;48.850;8.938;2023-04-25T14:09:19;11.60;99.90
7588;DHT22;3835;48.850;8.938;2023-04-25T14:11:50;11.80;99.90
7588;DHT22;3835;48.850;8.938;2023-04-25T14:14:17;12.10;99.90
7588;DHT22;3835;48.850;8.938;2023-04-25T14:16:44;12.00;99.90
7588;DHT22;3835;48.850;8.938;2023-04-25T14:19:11;12.10;99.90
7588;DHT22;3835;48.850;8.938;2023-04-25T14:21:39;11.60;99.90
7588;DHT22;3835;48.850;8.938;2023-04-25T14:24:06;11.70;99.90
7588;DHT22;3835;48.850;8.938;2023-04-25T14:26:33;11.40;99.90
7588;DHT22;3835;48.850;8.938;2023-04-25T14:29:00;11.40;99.90
7588;DHT22;3835;48.850;8.938;2023-04-25T14:31:27;11.40;99.90
7588;DHT22;3835;48.850;8.938;2023-04-25T14:33:54;10.70;99.90
7588;DHT22;3835;48.850;8.938;2023-04-25T14:36:21;11.00;99.90
7588;DHT22;3835;48.850;8.938;2023-04-25T14:38:49;11.00;99.90
7588;DHT22;3835;48.850;8.938;2023-04-25T14:41:15;10.80;99.90
7588;DHT22;3835;48.850;8.938;2023-04-25T14:43:42;11.00;99.90
7588;DHT22;3835;48.850;8.938;2023-04-25T14:46:10;11.50;99.90
7588;DHT22;3835;48.850;8.938;2023-04-25T14:48:37;11.70;99.90
7588;DHT22;3835;48.850;8.938;2023-04-25T14:51:04;11.90;99.90
7588;DHT22;3835;48.850;8.938;2023-04-25T14:53:31;12.10;99.90
7588;DHT22;3835;48.850;8.938;2023-04-25T14:55:59;11.20;99.90
7588;DHT22;3835;48.850;8.938;2023-04-25T14:58:26;11.20;99.90
7588;DHT22;3835;48.850;8.938;2023-04-25T15:00:53;11.80;99.90
7588;DHT22;3835;48.850;8.938;2023-04-25T15:03:20;11.40;99.90
7588;DHT22;3835;48.850;8.938;2023-04-25T15:05:47;11.50;99.90
7588;DHT22;3835;48.850;8.938;2023-04-25T15:08:14;10.90;99.90
7588;DHT22;3835;48.850;8.938;2023-04-25T15:10:40;10.70;99.90
7588;DHT22;3835;48.850;8.938;2023-04-25T15:13:09;10.90;99.90
7588;DHT22;3835;48.850;8.938;2023-04-25T15:15:36;10.60;99.90
7588;DHT22;3835;48.850;8.938;2023-04-25T15:18:03;11.00;99.90
7588;DHT22;3835;48.850;8.938;2023-04-25T15:20:29;11.10;99.90
7588;DHT22;3835;48.850;8.938;2023-04-25T15:22:57;10.90;99.90
7588;DHT22;3835;48.850;8.938;2023-04-25T15:25:24;10.80;99.90
7588;DHT22;3835;48.850;8.938;2023-04-25T15:27:51;11.00;99.90
7588;DHT22;3835;48.850;8.938;2023-04-25T15:30:20;11.00;99.90
7588;DHT22;3835;48.850;8.938;2023-04-25T15:32:47;11.00;99.90
7588;DHT22;3835;48.850;8.938;2023-04-25T15:35:14;10.70;99.90
7588;DHT22;3835;48.850;8.938;2023-04-25T15:37:41;10.30;99.90
7588;DHT22;3835;48.850;8.938;2023-04-25T15:40:10;10.30;99.90
7588;DHT22;3835;48.850;8.938;2023-04-25T15:42:38;10.10;99.90
7588;DHT22;3835;48.850;8.938;2023-04-25T15:45:07;9.90;99.90
7588;DHT22;3835;48.850;8.938;2023-04-25T15:47:37;9.90;99.90
7588;DHT22;3835;48.850;8.938;2023-04-25T15:50:05;9.90;99.90
7588;DHT22;3835;48.850;8.938;2023-04-25T15:52:33;9.90;99.90
7588;DHT22;3835;48.850;8.938;2023-04-25T15:55:00;9.70;99.90
7588;DHT22;3835;48.850;8.938;2023-04-25T15:57:26;9.70;99.90
7588;DHT22;3835;48.850;8.938;2023-04-25T15:59:53;9.70;99.90
7588;DHT22;3835;48.850;8.938;2023-04-25T16:02:21;9.90;99.90
7588;DHT22;3835;48.850;8.938;2023-04-25T16:04:49;9.80;99.90
7588;DHT22;3835;48.850;8.938;2023-04-25T16:07:16;9.90;99.90
7588;DHT22;3835;48.850;8.938;2023-04-25T16:09:43;10.30;99.90
7588;DHT22;3835;48.850;8.938;2023-04-25T16:12:11;10.50;99.90
7588;DHT22;3835;48.850;8.938;2023-04-25T16:14:38;10.50;99.90
7588;DHT22;3835;48.850;8.938;2023-04-25T16:17:05;10.40;99.90